createdAt,value
2022-08-05T00:01:35.532Z,99900.53
2022-08-05T00:04:05.225Z,99902.88
2022-08-05T00:06:36.246Z,99905.41
2022-08-05T00:09:04.633Z,99907.78
2022-08-05T00:11:49.068Z,99886.53
2022-08-05T00:14:17.526Z,99890.63
2022-08-05T00:16:53.306Z,99886.03
2022-08-05T00:19:22.589Z,99885.53
2022-08-05T00:21:51.125Z,99885.88
2022-08-05T00:24:24.389Z,99878.28
2022-08-05T00:26:54.100Z,99886.41
2022-08-05T00:29:25.299Z,99873.69
2022-08-05T00:32:13.363Z,99863.50
2022-08-05T00:34:54.550Z,99863.41
2022-08-05T00:37:50.794Z,99859.72
2022-08-05T00:40:17.896Z,99858.94
2022-08-05T00:43:00.177Z,99862.41
2022-08-05T00:45:42.877Z,99881.28
2022-08-05T00:48:12.925Z,99877.13
2022-08-05T00:50:41.364Z,99887.13
2022-08-05T00:54:00.085Z,99909.56
2022-08-05T00:56:01.847Z,99915.06
2022-08-05T00:58:30.665Z,99893.63
2022-08-05T01:00:58.249Z,99815.06
2022-08-05T01:03:30.943Z,99786.06
2022-08-05T01:06:01.388Z,99813.66
2022-08-05T01:08:43.446Z,99801.31
2022-08-05T01:11:22.646Z,99805.06
2022-08-05T01:14:03.508Z,99799.41
2022-08-05T01:16:36.845Z,99787.34
2022-08-05T01:19:14.843Z,99798.88
2022-08-05T01:21:58.183Z,99799.56
2022-08-05T01:24:41.452Z,99799.28
2022-08-05T01:27:27.088Z,99788.84
2022-08-05T01:30:03.965Z,99796.72
2022-08-05T01:32:33.387Z,99801.78
2022-08-05T01:35:04.200Z,99799.69
2022-08-05T01:37:44.298Z,99786.28
2022-08-05T01:40:13.697Z,99779.81
2022-08-05T01:42:46.341Z,99784.56
2022-08-05T01:45:16.615Z,99768.28
2022-08-05T01:47:45.625Z,99762.91
2022-08-05T01:50:18.925Z,99757.66
2022-08-05T01:52:58.971Z,99750.84
2022-08-05T01:55:27.950Z,99747.22
2022-08-05T01:58:14.773Z,99748.75
2022-08-05T02:00:46.997Z,99745.59
2022-08-05T02:03:31.276Z,99746.44
2022-08-05T02:06:03.613Z,99753.56
2022-08-05T02:08:58.254Z,99766.13
2022-08-05T02:11:33.644Z,99760.81
2022-08-05T02:14:04.132Z,99761.41
2022-08-05T02:16:36.122Z,99756.81
2022-08-05T02:19:13.015Z,99767.13
2022-08-05T02:21:49.064Z,99758.94
2022-08-05T02:24:23.114Z,99754.13
2022-08-05T02:26:54.811Z,99758.38
2022-08-05T02:29:58.178Z,99774.44
2022-08-05T02:32:23.639Z,99773.50
2022-08-05T02:34:57.978Z,99776.97
2022-08-05T02:37:29.568Z,99785.34
2022-08-05T02:39:59.884Z,99802.56
2022-08-05T02:42:31.915Z,99805.63
2022-08-05T02:45:02.738Z,99811.59
2022-08-05T02:48:07.282Z,99811.59
2022-08-05T02:50:19.958Z,99804.31
2022-08-05T02:52:47.796Z,99802.69
2022-08-05T02:55:17.571Z,99807.97
2022-08-05T02:58:11.318Z,99806.56
2022-08-05T03:00:41.224Z,99797.16
2022-08-05T03:03:16.345Z,99791.78
2022-08-05T03:06:53.645Z,99793.06
2022-08-05T03:08:32.225Z,99792.72
2022-08-05T03:11:01.302Z,99786.66
2022-08-05T03:13:51.768Z,99791.88
2022-08-05T03:16:31.662Z,99801.88
2022-08-05T03:19:00.788Z,99793.53
2022-08-05T03:21:33.196Z,99800.13
2022-08-05T03:24:10.514Z,99798.47
2022-08-05T03:26:41.179Z,99814.28
2022-08-05T03:29:13.351Z,99825.69
2022-08-05T03:31:55.644Z,99823.13
2022-08-05T03:34:26.407Z,99821.34
2022-08-05T03:36:54.932Z,99823.69
2022-08-05T03:39:27.162Z,99846.09
2022-08-05T03:41:56.389Z,99841.50
2022-08-05T03:44:24.122Z,99844.78
2022-08-05T03:46:51.605Z,99840.13
2022-08-05T03:49:19.446Z,99834.81
2022-08-05T03:52:48.602Z,99841.72
2022-08-05T03:56:00.973Z,99843.50
2022-08-05T03:57:42.246Z,99846.91
2022-08-05T04:00:12.693Z,99860.13
2022-08-05T04:02:57.545Z,99875.16
2022-08-05T04:05:28.233Z,99875.34
2022-08-05T04:08:03.589Z,99872.78
2022-08-05T04:10:37.971Z,99871.03
2022-08-05T04:13:07.040Z,99867.38
2022-08-05T04:15:36.135Z,99855.69
2022-08-05T04:18:07.006Z,99849.22
2022-08-05T04:20:36.715Z,99870.22
2022-08-05T04:23:05.532Z,99872.78
2022-08-05T04:25:57.076Z,99868.84
2022-08-05T04:28:21.137Z,99867.88
2022-08-05T04:31:00.780Z,99858.38
2022-08-05T04:33:36.398Z,99859.19
2022-08-05T04:36:46.143Z,99859.78
2022-08-05T04:39:05.662Z,99863.78
2022-08-05T04:41:37.636Z,99860.50
2022-08-05T04:44:09.586Z,99868.22
2022-08-05T04:46:37.878Z,99877.06
2022-08-05T04:49:05.813Z,99887.88
2022-08-05T04:51:39.933Z,99923.94
2022-08-05T04:54:11.983Z,99919.94
2022-08-05T04:56:40.128Z,99875.59
2022-08-05T04:59:22.023Z,99872.53
2022-08-05T05:02:36.135Z,99876.66
2022-08-05T05:04:47.619Z,99868.19
2022-08-05T05:07:17.567Z,99860.00
2022-08-05T05:09:46.634Z,99864.13
2022-08-05T05:12:14.853Z,99852.41
2022-08-05T05:14:49.269Z,99847.00
2022-08-05T05:17:23.469Z,99835.97
2022-08-05T05:19:54.349Z,99840.69
2022-08-05T05:22:24.532Z,99844.91
2022-08-05T05:24:58.550Z,99841.41
2022-08-05T05:27:44.635Z,99832.00
2022-08-05T05:30:15.301Z,99834.56
2022-08-05T05:33:00.998Z,99816.97
2022-08-05T05:35:37.582Z,99811.00
2022-08-05T05:38:13.505Z,99797.44
2022-08-05T05:40:48.122Z,99798.94
2022-08-05T05:43:27.723Z,99803.28
2022-08-05T05:46:13.671Z,99807.84
2022-08-05T05:48:46.062Z,99819.09
2022-08-05T05:51:22.395Z,99835.63
2022-08-05T05:53:57.709Z,99835.94
2022-08-05T05:56:31.861Z,99839.53
2022-08-05T05:59:03.614Z,99830.66
2022-08-05T06:01:37.078Z,99830.72
2022-08-05T06:04:07.273Z,99835.28
2022-08-05T06:06:35.553Z,99845.16
2022-08-05T06:09:03.981Z,99850.75
2022-08-05T06:11:33.270Z,99854.75
2022-08-05T06:14:01.667Z,99868.03
2022-08-05T06:16:36.672Z,99878.56
2022-08-05T06:19:07.407Z,99899.50
2022-08-05T06:21:38.325Z,99891.03
2022-08-05T06:24:11.989Z,99920.53
2022-08-05T06:26:51.250Z,99919.34
2022-08-05T06:29:23.610Z,99907.66
2022-08-05T06:31:54.361Z,99901.34
2022-08-05T06:34:21.869Z,99888.91
2022-08-05T06:36:57.381Z,99884.59
2022-08-05T06:39:27.028Z,99888.63
2022-08-05T06:41:58.729Z,99884.06
2022-08-05T06:44:26.755Z,99872.59
2022-08-05T06:46:54.521Z,99870.84
2022-08-05T06:50:00.058Z,99875.84
2022-08-05T06:52:36.618Z,99862.13
2022-08-05T06:54:57.174Z,99855.34
2022-08-05T06:57:57.677Z,99849.28
2022-08-05T07:00:14.188Z,99861.75
2022-08-05T07:02:53.607Z,99855.88
2022-08-05T07:05:31.791Z,99850.28
2022-08-05T07:08:10.930Z,99870.09
2022-08-05T07:10:39.388Z,99861.31
2022-08-05T07:13:58.698Z,99866.00
2022-08-05T07:18:01.907Z,99872.97
2022-08-05T07:20:29.834Z,99872.91
2022-08-05T07:22:22.346Z,99885.34
2022-08-05T07:24:56.977Z,99890.84
2022-08-05T07:27:27.354Z,99881.66
2022-08-05T07:30:25.408Z,99886.34
2022-08-05T07:32:45.990Z,99875.53
2022-08-05T07:36:01.554Z,99881.56
2022-08-05T07:38:12.169Z,99895.16
2022-08-05T07:40:44.387Z,99901.63
2022-08-05T07:43:14.567Z,99899.25
2022-08-05T07:45:57.565Z,99893.78
2022-08-05T07:49:00.419Z,99896.25
2022-08-05T07:51:23.681Z,99907.63
2022-08-05T07:54:03.223Z,99912.69
2022-08-05T07:56:49.018Z,99921.94
2022-08-05T07:59:23.194Z,99907.44
2022-08-05T08:02:00.249Z,99923.31
2022-08-05T08:04:37.889Z,99927.50
2022-08-05T08:07:07.468Z,99925.38
2022-08-05T08:09:35.219Z,99927.53
2022-08-05T08:12:12.531Z,99935.97
2022-08-05T08:14:46.624Z,99933.66
2022-08-05T08:17:16.405Z,99936.50
2022-08-05T08:20:43.690Z,99933.28
2022-08-05T08:22:32.867Z,99923.22
2022-08-05T08:25:03.073Z,99924.28
2022-08-05T08:27:39.874Z,99930.34
2022-08-05T08:30:29.522Z,99934.94
2022-08-05T08:33:04.501Z,99931.66
2022-08-05T08:35:41.086Z,99935.19
2022-08-05T08:38:16.451Z,99930.34
2022-08-05T08:40:50.483Z,99934.13
2022-08-05T08:45:18.291Z,99937.19
2022-08-05T08:46:10.022Z,99934.53
2022-08-05T08:49:04.160Z,99937.94
2022-08-05T08:52:03.553Z,99931.34
2022-08-05T08:54:22.238Z,99924.78
2022-08-05T08:56:56.630Z,99936.13
2022-08-05T08:59:27.761Z,99935.88
2022-08-05T09:02:01.846Z,99933.16
2022-08-05T09:04:31.155Z,99961.41
2022-08-05T09:06:58.946Z,100019.56
2022-08-05T09:09:34.712Z,100050.28
2022-08-05T09:12:20.022Z,100016.94
2022-08-05T09:14:57.115Z,100010.53
2022-08-05T09:17:40.851Z,100009.00
2022-08-05T09:20:36.299Z,100013.13
2022-08-05T09:23:09.378Z,100025.41
2022-08-05T09:26:02.468Z,100008.44
2022-08-05T09:28:32.350Z,100022.53
2022-08-05T09:32:38.702Z,100017.13
2022-08-05T09:33:52.406Z,100026.09
2022-08-05T09:36:27.789Z,100033.47
2022-08-05T09:39:01.178Z,100037.09
2022-08-05T09:41:33.187Z,100049.06
2022-08-05T09:44:05.755Z,100055.94
2022-08-05T09:46:34.972Z,100048.81
2022-08-05T09:49:08.094Z,100054.81
2022-08-05T09:51:50.051Z,100060.94
2022-08-05T09:54:21.263Z,100055.78
2022-08-05T09:56:57.595Z,100051.38
2022-08-05T09:59:27.682Z,100061.75
2022-08-05T10:01:58.137Z,100060.19
2022-08-05T10:04:33.124Z,100050.94
2022-08-05T10:07:19.640Z,100041.88
2022-08-05T10:10:04.183Z,100041.13
2022-08-05T10:12:49.628Z,100046.34
2022-08-05T10:15:20.221Z,100047.81
2022-08-05T10:18:03.688Z,100047.50
2022-08-05T10:20:31.369Z,100045.53
2022-08-05T10:23:02.095Z,100040.97
2022-08-05T10:25:30.894Z,100047.22
2022-08-05T10:28:13.635Z,100062.41
2022-08-05T10:32:49.466Z,100063.91
2022-08-05T10:33:35.133Z,100070.72
2022-08-05T10:36:04.405Z,100071.28
2022-08-05T10:38:33.677Z,100076.66
2022-08-05T10:41:03.585Z,100091.06
2022-08-05T10:43:35.946Z,100094.50
2022-08-05T10:46:06.272Z,100104.47
2022-08-05T10:48:39.620Z,100114.66
2022-08-05T10:51:23.210Z,100115.53
2022-08-05T10:53:58.366Z,100121.88
2022-08-05T10:56:29.172Z,100135.13
2022-08-05T10:59:07.357Z,100133.81
2022-08-05T11:02:04.966Z,100129.22
2022-08-05T11:04:32.917Z,100139.16
2022-08-05T11:07:06.341Z,100138.09
2022-08-05T11:09:48.845Z,100138.44
2022-08-05T11:12:34.327Z,100147.91
2022-08-05T11:15:19.445Z,100152.09
2022-08-05T11:17:59.135Z,100157.41
2022-08-05T11:20:42.044Z,100165.03
2022-08-05T11:23:33.198Z,100157.53
2022-08-05T11:26:28.503Z,100152.59
2022-08-05T11:29:06.892Z,100144.34
2022-08-05T11:31:56.648Z,100153.34
2022-08-05T11:34:47.598Z,100157.44
2022-08-05T11:38:28.778Z,100155.50
2022-08-05T11:41:14.141Z,100162.78
2022-08-05T11:44:01.105Z,100179.41
2022-08-05T11:46:34.961Z,100185.16
2022-08-05T11:49:04.277Z,100182.84
2022-08-05T11:51:43.637Z,100178.03
2022-08-05T11:54:24.426Z,100182.81
2022-08-05T11:57:02.278Z,100195.88
2022-08-05T11:59:49.459Z,100201.94
2022-08-05T12:02:29.811Z,100208.75
2022-08-05T12:05:07.066Z,100209.44
2022-08-05T12:08:08.585Z,100203.22
2022-08-05T12:10:43.053Z,100204.47
2022-08-05T12:13:15.571Z,100208.13
2022-08-05T12:15:45.161Z,100224.00
2022-08-05T12:18:18.864Z,100218.75
2022-08-05T12:20:49.550Z,100218.03
2022-08-05T12:24:07.647Z,100218.91
2022-08-05T12:31:07.229Z,100224.38
2022-08-05T12:33:36.456Z,100223.88
2022-08-05T12:36:09.412Z,100224.63
2022-08-05T12:38:39.640Z,100226.69
2022-08-05T12:41:13.193Z,100231.25
2022-08-05T12:43:52.254Z,100225.06
2022-08-05T12:46:29.404Z,100234.16
2022-08-05T12:49:12.888Z,100230.31
2022-08-05T12:52:13.457Z,100235.38
2022-08-05T12:54:34.749Z,100236.84
2022-08-05T12:57:03.880Z,100236.09
2022-08-05T12:59:46.872Z,100229.75
2022-08-05T13:02:22.030Z,100240.22
2022-08-05T13:04:57.697Z,100237.50
2022-08-05T13:10:19.869Z,100238.06
2022-08-05T13:12:51.171Z,100239.81
2022-08-05T13:15:35.862Z,100241.50
2022-08-05T13:18:09.487Z,100243.84
2022-08-05T13:20:40.421Z,100252.41
2022-08-05T13:23:09.566Z,100260.91
2022-08-05T13:25:52.701Z,100264.34
2022-08-05T13:28:24.597Z,100267.44
2022-08-05T13:30:53.329Z,100267.78
2022-08-05T13:34:25.062Z,100268.34
2022-08-05T13:36:09.127Z,100271.09
2022-08-05T13:38:42.806Z,100272.84
2022-08-05T13:41:10.757Z,100282.63
2022-08-05T13:43:44.433Z,100283.72
2022-08-05T13:46:14.295Z,100280.63
2022-08-05T13:48:57.269Z,100285.78
2022-08-05T13:51:29.698Z,100283.91
2022-08-05T13:54:12.570Z,100291.59
2022-08-05T13:56:45.415Z,100299.38
2022-08-05T13:59:21.102Z,100287.78
2022-08-05T14:01:57.489Z,100290.97
2022-08-05T14:04:50.448Z,100291.97
2022-08-05T14:07:25.689Z,100299.50
2022-08-05T14:10:11.454Z,100302.00
2022-08-05T14:12:39.382Z,100303.94
2022-08-05T14:16:09.087Z,100301.50
2022-08-05T14:17:59.800Z,100301.91
2022-08-05T14:20:28.354Z,100305.56
2022-08-05T14:22:56.000Z,100306.25
2022-08-05T14:25:28.186Z,100309.31
2022-08-05T14:27:55.888Z,100302.78
2022-08-05T14:30:26.687Z,100294.94
2022-08-05T14:32:56.673Z,100299.47
2022-08-05T14:35:37.315Z,100295.59
2022-08-05T14:38:31.688Z,100290.50
2022-08-05T14:41:06.296Z,100292.31
2022-08-05T14:43:53.956Z,100283.97
2022-08-05T14:46:28.661Z,100287.09
2022-08-05T14:48:58.210Z,100282.16
2022-08-05T14:51:26.457Z,100282.97
2022-08-05T14:54:26.236Z,100288.16
2022-08-05T14:56:47.393Z,100278.88
2022-08-05T14:59:15.415Z,100288.56
2022-08-05T15:01:48.011Z,100288.44
2022-08-05T15:04:17.233Z,100299.69
2022-08-05T15:06:49.332Z,100311.06
2022-08-05T15:09:50.616Z,100309.59
2022-08-05T15:12:08.823Z,100300.66
2022-08-05T15:14:48.033Z,100302.91
2022-08-05T15:17:46.321Z,100302.78
2022-08-05T15:20:06.274Z,100318.75
2022-08-05T15:22:37.378Z,100320.66
2022-08-05T15:25:11.877Z,100313.84
2022-08-05T15:27:52.120Z,100317.94
2022-08-05T15:30:20.266Z,100308.81
2022-08-05T15:32:49.993Z,100310.47
2022-08-05T15:35:17.551Z,100300.78
2022-08-05T15:38:33.059Z,100304.44
2022-08-05T15:41:01.109Z,100299.13
2022-08-05T15:43:46.948Z,100305.63
2022-08-05T15:46:40.252Z,100303.34
2022-08-05T15:49:10.050Z,100299.22
2022-08-05T15:52:13.574Z,100298.28
2022-08-05T15:54:37.354Z,100291.16
2022-08-05T15:57:07.342Z,100304.47
2022-08-05T15:59:38.173Z,100299.44
2022-08-05T16:02:09.444Z,100295.09
2022-08-05T16:04:42.393Z,100305.53
2022-08-05T16:07:10.811Z,100311.59
2022-08-05T16:09:41.510Z,100315.72
2022-08-05T16:12:09.961Z,100314.81
2022-08-05T16:14:40.401Z,100312.84
2022-08-05T16:17:07.953Z,100322.91
2022-08-05T16:20:04.199Z,100321.56
2022-08-05T16:22:27.787Z,100313.28
2022-08-05T16:25:07.934Z,100311.16
2022-08-05T16:27:47.164Z,100307.22
2022-08-05T16:30:28.804Z,100307.34
2022-08-05T16:32:57.316Z,100319.38
2022-08-05T16:35:28.464Z,100314.13
2022-08-05T16:38:16.768Z,100312.59
2022-08-05T16:40:51.595Z,100325.53
2022-08-05T16:43:23.717Z,100322.13
2022-08-05T16:46:05.057Z,100330.16
2022-08-05T16:48:37.389Z,100340.06
2022-08-05T16:51:10.168Z,100333.50
2022-08-05T16:54:05.366Z,100331.25
2022-08-05T16:56:27.898Z,100336.19
2022-08-05T16:58:55.714Z,100342.31
2022-08-05T17:01:24.837Z,100348.19
2022-08-05T17:03:52.684Z,100360.66
2022-08-05T17:06:20.687Z,100348.50
2022-08-05T17:08:54.463Z,100350.50
2022-08-05T17:11:23.404Z,100353.34
2022-08-05T17:14:00.162Z,100356.25
2022-08-05T17:16:36.490Z,100360.16
2022-08-05T17:19:07.003Z,100362.84
2022-08-05T17:21:36.941Z,100379.84
2022-08-05T17:24:14.317Z,100373.03
2022-08-05T17:26:54.126Z,100376.09
2022-08-05T17:29:33.236Z,100385.50
2022-08-05T17:32:11.775Z,100394.53
2022-08-05T17:34:47.733Z,100394.53
2022-08-05T17:37:32.100Z,100395.66
2022-08-05T17:40:04.374Z,100399.31
2022-08-05T17:42:33.085Z,100407.88
2022-08-05T17:45:17.873Z,100411.09
2022-08-05T17:47:54.601Z,100417.66
2022-08-05T17:50:27.708Z,100419.72
2022-08-05T17:52:56.722Z,100417.78
2022-08-05T17:55:34.703Z,100427.09
2022-08-05T17:58:06.918Z,100437.81
2022-08-05T18:00:35.884Z,100439.03
2022-08-05T18:03:28.206Z,100434.97
2022-08-05T18:06:04.336Z,100438.13
2022-08-05T18:08:33.723Z,100435.38
2022-08-05T18:11:03.256Z,100450.31
2022-08-05T18:13:36.880Z,100459.69
2022-08-05T18:16:13.360Z,100458.59
2022-08-05T18:18:48.600Z,100470.16
2022-08-05T18:21:21.105Z,100472.31
2022-08-05T18:23:53.909Z,100473.25
2022-08-05T18:26:21.953Z,100476.50
2022-08-05T18:28:56.290Z,100490.22
2022-08-05T18:31:24.398Z,100487.88
2022-08-05T18:33:54.852Z,100496.28
2022-08-05T18:36:27.996Z,100499.03
2022-08-05T18:38:55.884Z,100498.09
2022-08-05T18:41:53.444Z,100499.53
2022-08-05T18:44:11.248Z,100501.84
2022-08-05T18:46:41.208Z,100508.50
2022-08-05T18:49:30.356Z,100514.72
2022-08-05T18:52:15.909Z,100524.69
2022-08-05T18:54:45.860Z,100531.56
2022-08-05T18:57:15.333Z,100528.63
2022-08-05T19:00:01.386Z,100545.06
2022-08-05T19:02:30.927Z,100549.03
2022-08-05T19:06:05.474Z,100553.00
2022-08-05T19:07:49.815Z,100549.47
2022-08-05T19:10:17.951Z,100553.97
2022-08-05T19:12:46.110Z,100555.34
2022-08-05T19:15:54.691Z,100560.34
2022-08-05T19:18:09.787Z,100566.03
2022-08-05T19:20:41.081Z,100564.38
2022-08-05T19:24:04.324Z,100568.84
2022-08-05T19:26:02.222Z,100568.34
2022-08-05T19:28:30.556Z,100573.06
2022-08-05T19:30:58.172Z,100576.88
2022-08-05T19:33:35.375Z,100587.59
2022-08-05T19:36:06.286Z,100584.94
2022-08-05T19:38:35.884Z,100592.19
2022-08-05T19:41:07.029Z,100602.72
2022-08-05T19:44:05.777Z,100603.75
2022-08-05T19:46:30.179Z,100609.78
2022-08-05T19:49:00.948Z,100613.94
2022-08-05T19:52:08.349Z,100618.66
2022-08-05T19:54:25.594Z,100613.84
2022-08-05T19:56:58.623Z,100617.25
2022-08-05T19:59:56.744Z,100631.34
2022-08-05T20:02:13.696Z,100625.25
2022-08-05T20:04:43.114Z,100633.56
2022-08-05T20:07:14.825Z,100642.97
2022-08-05T20:09:53.600Z,100647.56
2022-08-05T20:12:24.148Z,100640.94
2022-08-05T20:14:52.727Z,100652.09
2022-08-05T20:17:23.423Z,100651.47
2022-08-05T20:19:56.552Z,100656.91
2022-08-05T20:22:26.804Z,100661.34
2022-08-05T20:24:55.554Z,100656.28
2022-08-05T20:27:26.439Z,100655.44
2022-08-05T20:29:57.803Z,100664.31
2022-08-05T20:32:27.562Z,100668.84
2022-08-05T20:34:55.369Z,100682.28
2022-08-05T20:38:06.770Z,100687.09
2022-08-05T20:40:13.071Z,100690.06
2022-08-05T20:42:40.621Z,100696.72
2022-08-05T20:45:11.695Z,100698.28
2022-08-05T20:47:40.053Z,100692.34
2022-08-05T20:50:09.369Z,100695.50
2022-08-05T20:52:41.479Z,100705.84
2022-08-05T20:55:56.866Z,100711.84
2022-08-05T20:57:58.569Z,100713.06
2022-08-05T21:00:44.126Z,100719.78
2022-08-05T21:03:16.810Z,100721.28
2022-08-05T21:05:54.558Z,100727.81
2022-08-05T21:08:26.505Z,100727.09
2022-08-05T21:11:10.169Z,100733.38
2022-08-05T21:13:47.540Z,100726.69
2022-08-05T21:16:23.444Z,100729.31
2022-08-05T21:19:00.137Z,100722.88
2022-08-05T21:21:39.787Z,100723.72
2022-08-05T21:24:12.720Z,100736.41
2022-08-05T21:26:41.439Z,100732.47
2022-08-05T21:29:12.697Z,100735.41
2022-08-05T21:31:44.470Z,100732.44
2022-08-05T21:34:12.212Z,100723.38
2022-08-05T21:36:39.742Z,100732.50
2022-08-05T21:39:10.323Z,100727.59
2022-08-05T21:41:42.014Z,100729.06
2022-08-05T21:44:27.215Z,100737.66
2022-08-05T21:46:58.028Z,100736.56
2022-08-05T21:49:58.653Z,100738.72
2022-08-05T21:52:22.082Z,100731.53
2022-08-05T21:54:55.863Z,100733.41
2022-08-05T21:57:32.433Z,100732.78
2022-08-05T22:00:06.924Z,100732.00
2022-08-05T22:02:43.009Z,100736.16
2022-08-05T22:05:11.449Z,100738.56
2022-08-05T22:07:58.504Z,100741.97
2022-08-05T22:10:27.716Z,100741.44
2022-08-05T22:12:57.537Z,100745.78
2022-08-05T22:16:01.808Z,100736.00
2022-08-05T22:18:15.884Z,100751.31
2022-08-05T22:20:47.150Z,100756.34
2022-08-05T22:24:00.961Z,100760.88
2022-08-05T22:26:42.051Z,100755.56
2022-08-05T22:29:18.855Z,100760.59
2022-08-05T22:31:59.616Z,100753.59
2022-08-05T22:34:31.117Z,100759.59
2022-08-05T22:36:59.255Z,100771.09
2022-08-05T22:39:31.154Z,100765.94
2022-08-05T22:42:11.836Z,100777.44
2022-08-05T22:44:42.780Z,100774.59
2022-08-05T22:47:29.199Z,100776.44
2022-08-05T22:50:19.446Z,100771.25
2022-08-05T22:52:46.478Z,100773.25
2022-08-05T22:55:18.623Z,100778.94
2022-08-05T22:57:49.125Z,100782.63
2022-08-05T23:00:20.913Z,100786.44
2022-08-05T23:02:51.873Z,100794.31
2022-08-05T23:05:22.195Z,100793.63
2022-08-05T23:07:50.707Z,100790.63
2022-08-05T23:10:19.850Z,100791.94
2022-08-05T23:12:51.591Z,100791.97
2022-08-05T23:15:27.118Z,100791.47
2022-08-05T23:18:02.264Z,100797.63
2022-08-05T23:20:32.336Z,100804.81
2022-08-05T23:23:00.000Z,100810.13
2022-08-05T23:25:51.862Z,100806.97
2022-08-05T23:28:15.969Z,100811.63
2022-08-05T23:30:53.388Z,100816.47
2022-08-05T23:33:26.371Z,100812.63
2022-08-05T23:36:13.628Z,100819.97
2022-08-05T23:38:41.969Z,100819.97
2022-08-05T23:41:10.425Z,100828.94
2022-08-05T23:44:06.347Z,100829.75
2022-08-05T23:46:25.916Z,100837.59
2022-08-05T23:49:00.461Z,100834.09
2022-08-05T23:51:46.448Z,100844.22
2022-08-05T23:54:25.458Z,100844.75
2022-08-05T23:56:55.209Z,100832.72
2022-08-05T23:59:23.004Z,100841.16
